Time;durP1;ratioP1;P1;durP2;ratioP2;P2;SDS_P1;SDS_P2;PMS_P1;PMS_P2;Temp;Humidity;BMP_temperature;BMP_pressure;BME280_temperature;BME280_humidity;BME280_pressure;Samples;Min_cycle;Max_cycle;Signal;HPM_P1;HPM_P2
2022/09/26 00:01:42;;;;;;;13.67;11.83;;;12.60;99.90;;;-141.84;83.80;18747.00;5033557;28;20310;-60
2022/09/26 00:04:17;;;;;;;11.37;10.23;;;12.70;99.90;;;-141.84;83.52;18728.72;5033565;28;20214;-59
2022/09/26 00:06:50;;;;;;;12.63;10.80;;;12.70;99.90;;;-141.84;83.63;18724.66;5033600;28;20189;-59
2022/09/26 00:09:19;;;;;;;12.70;10.77;;;12.70;99.90;;;-141.84;83.21;18704.31;5032949;28;20221;-61
2022/09/26 00:11:47;;;;;;;11.77;10.57;;;12.60;99.90;;;-141.84;83.04;18724.66;5032846;28;20661;-61
2022/09/26 00:14:19;;;;;;;11.90;10.63;;;12.60;99.90;;;-141.84;83.05;18720.59;5033280;28;20678;-60
2022/09/26 00:16:48;;;;;;;12.47;11.07;;;12.60;99.90;;;-141.84;83.28;18716.53;5033079;28;20222;-60
2022/09/26 00:19:17;;;;;;;11.80;10.47;;;12.50;99.90;;;-141.84;82.87;18730.75;5032896;28;20260;-60
2022/09/26 00:21:45;;;;;;;10.57;9.43;;;12.60;99.90;;;-141.84;82.72;18714.50;5033376;28;20206;-59
2022/09/26 00:24:14;;;;;;;10.57;9.50;;;12.50;99.90;;;-141.84;82.12;18722.63;5032751;28;20611;-60
2022/09/26 00:26:43;;;;;;;10.17;9.17;;;12.50;99.90;;;-141.84;81.84;18734.81;5032606;28;20291;-60
2022/09/26 00:29:13;;;;;;;9.70;8.70;;;12.50;99.90;;;-141.84;82.18;18708.41;5032861;28;20241;-62
2022/09/26 00:31:46;;;;;;;12.50;9.93;;;12.50;99.90;;;-141.84;82.04;18740.91;5032510;28;20253;-59
2022/09/26 00:34:19;;;;;;;10.20;9.10;;;12.50;99.90;;;-141.84;82.33;18710.44;5032983;28;20522;-60
2022/09/26 00:36:47;;;;;;;12.97;9.77;;;12.50;99.90;;;-141.84;82.53;18696.19;5032910;28;20183;-60
2022/09/26 00:39:16;;;;;;;13.70;9.57;;;12.50;99.90;;;-141.84;82.55;18712.47;5032617;28;20248;-61
2022/09/26 00:41:45;;;;;;;10.20;9.10;;;12.50;99.90;;;-141.84;81.63;18755.13;5032268;28;20226;-60
2022/09/26 00:44:42;;;;;;;10.77;9.00;;;12.50;99.90;;;-141.84;81.63;18751.06;5032307;28;20492;-60
2022/09/26 00:47:35;;;;;;;11.30;9.30;;;12.50;99.90;;;-141.84;81.34;18738.88;5032253;28;20706;-60
2022/09/26 00:50:15;;;;;;;10.20;9.20;;;12.60;99.90;;;-141.84;82.15;18722.63;5032404;28;20226;-60
2022/09/26 00:52:52;;;;;;;11.13;10.00;;;12.50;99.90;;;-141.84;82.71;18694.16;5032421;28;20225;-61
2022/09/26 00:55:29;;;;;;;11.23;9.40;;;12.50;99.90;;;-141.84;82.71;18712.47;5032323;28;20193;-59
2022/09/26 00:58:04;;;;;;;10.93;9.83;;;12.50;99.90;;;-141.84;82.76;18710.44;5032860;28;20422;-60
2022/09/26 01:00:32;;;;;;;11.20;9.50;;;12.50;99.90;;;-141.84;82.46;18686.03;5045104;28;20225;-61
2022/09/26 01:03:02;;;;;;;10.17;9.23;;;12.40;99.90;;;-141.84;82.38;18692.13;5032051;28;20238;-61
2022/09/26 01:05:33;;;;;;;12.07;9.93;;;12.40;99.90;;;-141.84;82.21;18692.13;5032086;28;20655;-60
2022/09/26 01:08:04;;;;;;;12.80;9.50;;;12.40;99.90;;;-141.84;82.03;18686.03;5031834;28;20225;-60
2022/09/26 01:10:34;;;;;;;10.67;9.60;;;12.40;99.90;;;-141.84;81.79;18724.66;5032178;28;20229;-59
2022/09/26 01:13:03;;;;;;;12.43;9.93;;;12.30;99.90;;;-141.84;81.57;18702.28;5032081;28;20182;-60
2022/09/26 01:15:31;;;;;;;11.63;9.27;;;12.30;99.90;;;-141.84;81.54;18702.28;5032293;28;20263;-61
2022/09/26 01:17:59;;;;;;;10.97;9.87;;;12.30;99.90;;;-141.84;82.01;18679.94;5031940;28;20232;-60
2022/09/26 01:20:38;;;;;;;11.73;10.53;;;12.30;99.90;;;-141.84;82.11;18704.31;5031806;28;20226;-61
2022/09/26 01:23:51;;;;;;;10.77;9.67;;;12.30;99.90;;;-141.84;82.43;18643.38;5040720;28;20229;-59
2022/09/26 01:26:51;;;;;;;10.37;9.37;;;12.30;99.90;;;-141.84;82.39;18681.97;5051657;28;20229;-61
2022/09/26 01:30:00;;;;;;;11.43;10.23;;;12.30;99.90;;;-141.84;82.49;18700.25;5051672;28;20720;-59
2022/09/26 01:32:51;;;;;;;11.30;10.10;;;12.40;99.90;;;-141.84;82.52;18700.25;5031587;28;20226;-61
2022/09/26 01:35:44;;;;;;;12.57;10.50;;;12.40;99.90;;;-141.84;82.78;18681.97;5031862;28;20309;-62
2022/09/26 01:38:25;;;;;;;10.47;9.20;;;12.30;99.90;;;-141.84;82.89;18649.47;5031597;28;20229;-60
2022/09/26 01:41:11;;;;;;;10.87;9.77;;;12.40;99.90;;;-141.84;82.86;18647.44;5031438;28;20241;-61
2022/09/26 01:43:51;;;;;;;12.10;10.47;;;12.40;99.90;;;-141.84;82.68;18681.97;5031342;28;20237;-60
2022/09/26 01:46:29;;;;;;;11.00;9.87;;;12.40;99.90;;;-141.84;82.58;18671.81;5031430;28;20588;-60
2022/09/26 01:49:12;;;;;;;13.03;10.23;;;12.40;99.90;;;-141.84;82.74;18686.03;5032019;28;20187;-59
2022/09/26 01:51:50;;;;;;;11.00;9.90;;;12.40;99.90;;;-141.84;82.74;18647.44;5036111;28;20750;-61
2022/09/26 01:54:24;;;;;;;12.33;10.00;;;12.40;99.90;;;-141.84;82.56;18675.88;5051151;28;20228;-61
2022/09/26 01:56:57;;;;;;;12.03;10.37;;;12.40;99.90;;;-141.84;82.79;18645.41;5051037;28;20232;-59
2022/09/26 01:59:32;;;;;;;11.53;10.33;;;12.30;99.90;;;-141.84;82.48;18598.69;5051418;28;20235;-59
2022/09/26 02:02:08;;;;;;;12.07;10.57;;;12.30;99.90;;;-141.84;82.28;18641.34;5051364;28;20298;-61
2022/09/26 02:04:44;;;;;;;12.17;9.53;;;12.40;99.90;;;-141.84;81.85;18655.56;5051362;28;20224;-60
2022/09/26 02:07:18;;;;;;;11.95;9.13;;;12.30;99.90;;;-141.84;82.17;18690.09;5051291;28;20243;-60
2022/09/26 02:09:52;;;;;;;11.40;10.17;;;12.40;99.90;;;-141.84;82.28;18671.81;5051485;28;20212;-60
2022/09/26 02:12:31;;;;;;;11.40;9.90;;;12.40;99.90;;;-141.84;82.68;18633.22;5050656;28;20231;-62
2022/09/26 02:15:04;;;;;;;14.33;11.47;;;12.30;99.90;;;-141.84;82.96;18659.63;5051240;28;20229;-60
2022/09/26 02:17:38;;;;;;;12.30;11.00;;;12.40;99.90;;;-141.84;83.01;18635.25;5051136;28;20367;-62
2022/09/26 02:20:16;;;;;;;11.70;10.00;;;12.40;99.90;;;-141.84;82.92;18649.47;5050956;28;20649;-60
2022/09/26 02:22:44;;;;;;;11.80;10.53;;;12.40;99.90;;;-141.84;83.15;18633.22;5050829;28;20584;-59
2022/09/26 02:25:12;;;;;;;10.53;9.50;;;12.20;99.90;;;-141.84;82.88;18690.09;5051256;28;20638;-61
2022/09/26 02:27:40;;;;;;;12.40;11.10;;;12.30;99.90;;;-141.84;82.67;18659.63;5051392;28;20206;-60
2022/09/26 02:30:11;;;;;;;11.53;10.33;;;12.40;99.90;;;-141.84;83.08;18623.06;5050941;28;20228;-61
2022/09/26 02:32:39;;;;;;;11.20;10.10;;;12.40;99.90;;;-141.84;83.29;18614.94;5051003;28;20228;-60
2022/09/26 02:35:52;;;;;;;11.63;10.53;;;12.30;99.90;;;-141.84;83.63;18633.22;5050905;28;20604;-60
2022/09/26 02:38:04;;;;;;;12.03;10.23;;;12.30;99.90;;;-141.84;83.89;18582.44;5050434;28;20295;-59
2022/09/26 02:40:59;;;;;;;13.83;11.30;;;12.30;99.90;;;-141.84;83.27;18629.16;5051074;28;20258;-60
2022/09/26 02:44:12;;;;;;;13.47;11.33;;;12.30;99.90;;;-141.84;83.24;18586.50;5050835;28;20229;-61
2022/09/26 02:47:08;;;;;;;12.40;10.87;;;12.30;99.90;;;-141.84;83.88;18598.69;5051059;28;20226;-60
2022/09/26 02:50:07;;;;;;;12.97;10.37;;;12.20;99.90;;;-141.84;84.30;18582.44;5051016;28;20221;-60
2022/09/26 02:52:56;;;;;;;11.47;10.27;;;12.20;99.90;;;-141.84;84.83;18564.13;5051043;28;20225;-60
2022/09/26 02:55:37;;;;;;;14.53;11.80;;;12.20;99.90;;;-141.84;84.97;18602.75;5050791;28;20237;-61
2022/09/26 02:58:18;;;;;;;17.67;12.77;;;12.30;99.90;;;-141.84;84.51;18610.88;5050542;28;20190;-60
2022/09/26 03:01:01;;;;;;;14.67;12.97;;;12.20;99.90;;;-141.84;84.60;18527.56;5051370;28;20201;-60
2022/09/26 03:03:37;;;;;;;14.73;12.90;;;12.30;99.90;;;-141.84;85.15;18604.78;5050846;28;20583;-60
2022/09/26 03:06:12;;;;;;;14.40;12.90;;;12.30;99.90;;;-141.84;85.35;18562.09;5050471;28;20239;-61
2022/09/26 03:08:47;;;;;;;13.27;11.87;;;12.30;99.90;;;-141.84;85.71;18558.03;5051782;28;20607;-61
2022/09/26 03:11:22;;;;;;;16.80;12.67;;;12.30;99.90;;;-141.84;85.74;18543.81;5053983;28;20236;-60
2022/09/26 03:13:55;;;;;;;16.17;13.00;;;12.40;99.90;;;-141.84;85.63;18547.88;5054376;28;20213;-59
2022/09/26 03:16:28;;;;;;;14.40;11.67;;;12.30;99.90;;;-141.84;85.38;18545.84;5054339;28;20275;-61
2022/09/26 03:19:05;;;;;;;12.67;11.13;;;12.30;99.90;;;-141.84;85.18;18517.41;5054350;28;20207;-60
2022/09/26 03:21:34;;;;;;;13.73;11.27;;;12.30;99.90;;;-141.84;85.47;18543.81;5054445;28;20221;-59
2022/09/26 03:24:05;;;;;;;14.67;11.57;;;12.30;99.90;;;-141.84;85.55;18592.59;5053725;28;20256;-60
2022/09/26 03:26:36;;;;;;;12.70;11.07;;;12.30;99.90;;;-141.84;85.04;18576.31;5053763;28;20260;-62
2022/09/26 03:29:05;;;;;;;12.90;11.27;;;12.20;99.90;;;-141.84;84.63;18533.66;5054260;28;20229;-61
2022/09/26 03:31:33;;;;;;;14.40;11.10;;;12.30;99.90;;;-141.84;83.58;18580.41;5054066;28;20241;-60
2022/09/26 03:34:02;;;;;;;12.70;10.53;;;12.30;99.90;;;-141.84;83.47;18531.63;5054003;28;20205;-63
2022/09/26 03:36:30;;;;;;;12.07;10.18;;;12.30;99.90;;;-141.84;84.19;18562.09;5054380;28;20197;-61
2022/09/26 03:38:59;;;;;;;12.00;10.73;;;12.30;99.90;;;-141.84;83.54;18592.59;5053491;28;20225;-60
2022/09/26 03:41:28;;;;;;;14.20;9.70;;;12.30;99.90;;;-141.84;83.64;18572.25;5053495;28;20225;-61
2022/09/26 03:43:57;;;;;;;12.48;9.57;;;12.30;99.90;;;-141.84;83.84;18623.06;5053265;28;20236;-61
2022/09/26 03:46:25;;;;;;;11.60;10.40;;;12.30;99.90;;;-141.84;84.16;18574.28;5053668;28;20252;-59
2022/09/26 03:48:53;;;;;;;11.97;10.77;;;12.30;99.90;;;-141.84;84.40;18558.03;5054010;28;20224;-60
2022/09/26 03:51:21;;;;;;;11.25;10.05;;;12.30;99.90;;;-141.84;84.85;18533.66;5053457;28;20225;-60
2022/09/26 03:53:49;;;;;;;11.47;10.37;;;12.30;99.90;;;-141.84;84.90;18531.63;5053325;28;20225;-61
2022/09/26 03:56:20;;;;;;;13.00;10.47;;;12.30;99.90;;;-141.84;84.85;18545.84;5053179;28;20282;-60
2022/09/26 03:58:50;;;;;;;11.20;10.00;;;12.30;99.90;;;-141.84;84.92;18533.66;5053619;28;20217;-60
2022/09/26 04:01:21;;;;;;;11.13;9.67;;;12.20;99.90;;;-141.84;84.74;18570.22;5053175;28;20208;-61
2022/09/26 04:03:50;;;;;;;14.07;10.20;;;12.30;99.90;;;-141.84;84.87;18525.53;5053796;28;20188;-61
2022/09/26 04:06:19;;;;;;;10.40;9.30;;;12.20;99.90;;;-141.84;84.58;18525.53;5053096;28;20229;-60
2022/09/26 04:08:51;;;;;;;11.43;9.63;;;12.20;99.90;;;-141.84;84.80;18547.88;5053022;28;20229;-62
2022/09/26 04:11:23;;;;;;;13.23;9.57;;;12.20;99.90;;;-141.84;84.68;18527.56;5052900;28;20236;-60
2022/09/26 04:13:53;;;;;;;11.00;9.43;;;12.20;99.90;;;-141.84;84.86;18491.00;5053281;28;20441;-59
2022/09/26 04:16:22;;;;;;;12.30;9.90;;;12.20;99.90;;;-141.84;85.13;18545.84;5053130;28;20279;-60
2022/09/26 04:18:56;;;;;;;10.90;9.40;;;12.10;99.90;;;-141.84;85.44;18521.47;5053479;28;20553;-60
2022/09/26 04:21:25;;;;;;;11.60;10.00;;;12.20;99.90;;;-141.84;85.70;18531.63;5052662;28;20233;-60
2022/09/26 04:23:54;;;;;;;12.87;9.87;;;12.00;99.90;;;-141.84;86.03;18474.75;5052639;28;20228;-60
2022/09/26 04:26:23;;;;;;;11.50;10.07;;;12.00;99.90;;;-141.84;86.18;18454.44;5052575;28;20632;-61
2022/09/26 04:28:57;;;;;;;12.37;10.10;;;12.00;99.90;;;-141.84;86.19;18501.16;5052867;28;20229;-61
2022/09/26 04:31:27;;;;;;;11.57;9.77;;;11.90;99.90;;;-141.84;86.52;18438.19;5052838;28;20219;-60
2022/09/26 04:33:55;;;;;;;11.00;9.43;;;11.80;99.90;;;-141.84;86.80;18478.81;5053308;28;20204;-60
2022/09/26 04:36:24;;;;;;;13.20;9.77;;;11.70;99.90;;;-141.84;87.13;18423.94;5052359;28;20244;-60
2022/09/26 04:38:52;;;;;;;12.47;9.70;;;11.60;99.90;;;-141.84;87.65;18430.06;5052585;28;20616;-60
2022/09/26 04:41:22;;;;;;;9.87;8.80;;;11.50;99.90;;;-141.84;88.15;18407.69;5052274;28;20641;-60
2022/09/26 04:43:50;;;;;;;13.37;9.90;;;11.40;99.90;;;-141.84;88.70;18381.28;5052812;28;20225;-60
2022/09/26 04:46:24;;;;;;;10.83;9.33;;;11.30;99.90;;;-141.84;89.28;18358.94;5052401;28;20228;-59
2022/09/26 04:49:01;;;;;;;14.07;10.57;;;11.20;99.90;;;-141.84;89.72;18395.50;5053064;28;20185;-61
2022/09/26 04:51:31;;;;;;;13.40;10.93;;;11.20;99.90;;;-141.84;89.88;18356.91;5052538;28;20689;-61
2022/09/26 04:53:59;;;;;;;13.90;9.73;;;11.10;99.90;;;-141.84;90.32;18383.31;5052144;28;20693;-60
2022/09/26 04:56:30;;;;;;;13.37;10.57;;;11.10;99.90;;;-141.84;90.68;18324.41;5051918;28;20299;-60
2022/09/26 04:58:59;;;;;;;11.73;10.33;;;11.00;99.90;;;-141.84;91.07;18363.00;5052068;28;20712;-60
2022/09/26 05:01:29;;;;;;;14.97;11.10;;;11.00;99.90;;;-141.84;91.23;18363.00;5052154;28;20228;-60
2022/09/26 05:03:57;;;;;;;14.97;11.23;;;11.00;99.90;;;-141.84;91.49;18367.06;5052724;28;20237;-59
2022/09/26 05:06:25;;;;;;;13.57;11.03;;;11.00;99.90;;;-141.84;91.92;18314.25;5051812;28;20225;-60
2022/09/26 05:08:53;;;;;;;15.23;11.70;;;11.00;99.90;;;-141.84;92.10;18326.44;5051768;28;20236;-60
2022/09/26 05:11:21;;;;;;;13.23;11.77;;;11.00;99.90;;;-141.84;92.36;18310.19;5051537;28;20225;-59
2022/09/26 05:13:50;;;;;;;15.03;12.40;;;10.90;99.90;;;-141.84;92.43;18326.44;5052034;28;20232;-60
2022/09/26 05:16:21;;;;;;;14.50;12.23;;;10.90;99.90;;;-141.84;92.40;18308.16;5051720;28;20178;-60
2022/09/26 05:18:52;;;;;;;14.73;13.10;;;10.90;99.90;;;-141.84;92.28;18324.41;5052103;28;20716;-59
2022/09/26 05:21:20;;;;;;;12.77;10.63;;;10.80;99.90;;;-141.84;92.71;18295.97;5051464;28;20291;-60
2022/09/26 05:26:42;;;;;;;13.27;10.80;;;10.80;99.90;;;-141.84;92.92;18289.88;5051542;28;20228;-60
2022/09/26 05:29:10;;;;;;;13.50;11.10;;;10.70;99.90;;;-141.84;93.01;18287.84;5051491;28;20236;-60
2022/09/26 05:31:39;;;;;;;11.77;10.50;;;10.70;99.90;;;-141.84;92.93;18302.06;5050659;28;20769;-58
2022/09/26 05:34:11;;;;;;;12.37;11.03;;;10.70;99.90;;;-141.84;93.01;18298.00;5051251;28;20732;-59
2022/09/26 05:36:47;;;;;;;11.90;10.07;;;10.70;99.90;;;-141.84;92.88;18285.81;5051970;28;20235;-60
2022/09/26 05:42:08;;;;;;;13.37;9.63;;;10.70;99.90;;;-141.84;93.40;18310.19;5051158;28;20229;-60
2022/09/26 05:44:38;;;;;;;12.53;9.87;;;10.70;99.90;;;-141.84;93.55;18324.41;5051248;28;20259;-60
2022/09/26 05:47:07;;;;;;;17.87;10.67;;;10.70;99.90;;;-141.84;93.25;18310.19;5050886;28;20312;-61
2022/09/26 05:49:37;;;;;;;13.40;10.57;;;10.80;99.90;;;-141.84;93.19;18259.41;5051283;28;20645;-59
2022/09/26 05:52:05;;;;;;;12.50;10.27;;;10.80;99.90;;;-141.84;93.02;18271.59;5051220;28;20212;-59
2022/09/26 05:54:33;;;;;;;11.67;9.87;;;10.80;99.90;;;-141.84;92.43;18291.91;5051504;28;20207;-60
2022/09/26 05:57:01;;;;;;;10.17;8.90;;;10.90;99.90;;;-141.84;92.21;18273.63;5050611;28;20607;-61
2022/09/26 05:59:29;;;;;;;13.00;9.60;;;10.90;99.90;;;-141.84;92.28;18324.41;5051085;28;20275;-59
2022/09/26 06:01:59;;;;;;;10.77;9.57;;;10.90;99.90;;;-141.84;92.08;18287.84;5050998;28;20221;-61
2022/09/26 06:04:28;;;;;;;14.57;9.93;;;11.00;99.90;;;-141.84;92.16;18287.84;5050845;28;20598;-60
2022/09/26 06:06:58;;;;;;;12.63;9.80;;;11.10;99.90;;;-141.84;91.84;18283.78;5051190;28;20597;-59
2022/09/26 06:09:26;;;;;;;10.77;8.63;;;11.10;99.90;;;-141.84;91.76;18322.38;5051160;28;20720;-60
2022/09/26 06:11:54;;;;;;;12.17;8.63;;;11.10;99.90;;;-141.84;91.16;18348.78;5050541;28;20225;-61
2022/09/26 06:14:25;;;;;;;9.43;7.67;;;11.20;99.90;;;-141.84;89.45;18318.31;5051127;28;20237;-62
2022/09/26 06:16:53;;;;;;;9.57;8.27;;;11.30;99.90;;;-141.84;87.60;18314.25;5050714;28;20233;-59
2022/09/26 06:19:21;;;;;;;10.67;7.17;;;11.30;99.90;;;-141.84;85.75;18322.38;5051173;28;20259;-60
2022/09/26 06:21:50;;;;;;;7.50;6.30;;;11.40;99.90;;;-141.84;84.65;18371.13;5051396;28;20211;-60
2022/09/26 06:24:20;;;;;;;8.87;6.23;;;11.50;99.90;;;-141.84;83.20;18385.34;5050643;28;20727;-60
2022/09/26 06:26:48;;;;;;;7.20;5.83;;;11.50;99.90;;;-141.84;83.38;18379.25;5050202;28;20228;-63
2022/09/26 06:29:16;;;;;;;8.30;5.60;;;11.60;99.90;;;-141.84;82.46;18399.56;5050633;28;20766;-60
2022/09/26 06:31:45;;;;;;;8.10;5.23;;;11.70;99.90;;;-141.84;81.49;18421.91;5050493;28;20716;-59
2022/09/26 06:34:14;;;;;;;7.30;5.20;;;11.80;99.90;;;-141.84;81.01;18440.22;5050854;28;20205;-61
2022/09/26 06:36:43;;;;;;;6.57;5.20;;;11.80;99.90;;;-141.84;80.87;18454.44;5051212;28;20236;-59
2022/09/26 06:39:10;;;;;;;6.63;5.13;;;11.90;99.90;;;-141.84;78.87;18549.91;5050507;28;20248;-58
2022/09/26 06:41:40;;;;;;;5.50;4.70;;;12.00;99.90;;;-141.84;77.30;18592.59;5050417;28;20576;-61
2022/09/26 06:44:08;;;;;;;8.17;4.67;;;12.20;99.90;;;-141.84;76.17;18635.25;5053011;28;20225;-61
2022/09/26 06:46:36;;;;;;;10.83;4.40;;;12.30;99.90;;;-141.84;74.30;18726.69;5054538;28;20233;-60
2022/09/26 06:49:05;;;;;;;8.40;4.50;;;12.40;99.90;;;-141.84;74.92;18702.28;5055066;28;20204;-59
2022/09/26 06:51:33;;;;;;;4.90;3.97;;;12.40;99.90;;;-141.84;75.38;18712.47;5054746;28;20671;-63
2022/09/26 06:54:02;;;;;;;5.67;4.33;;;12.40;99.90;;;-141.84;74.78;18742.94;5047366;28;20225;-61
2022/09/26 06:56:30;;;;;;;5.87;4.17;;;12.50;99.90;;;-141.84;75.15;18700.25;5039146;28;20301;-61
2022/09/26 06:59:01;;;;;;;6.93;4.03;;;12.50;99.90;;;-141.84;74.10;18749.03;5050864;28;20716;-60
2022/09/26 07:01:29;;;;;;;5.23;4.00;;;12.60;99.90;;;-141.84;74.29;18753.09;5049150;28;20221;-60
2022/09/26 07:03:57;;;;;;;4.83;4.13;;;12.60;99.90;;;-141.84;73.49;18850.63;5054798;28;20208;-60
2022/09/26 07:06:26;;;;;;;4.70;3.67;;;12.70;99.90;;;-141.84;72.27;18879.06;5053617;28;20624;-61
2022/09/26 07:08:54;;;;;;;3.63;3.33;;;12.70;99.90;;;-141.84;72.50;18824.22;5053788;28;20229;-62
2022/09/26 07:11:31;;;;;;;6.57;3.70;;;12.80;99.90;;;-141.84;72.01;18838.44;5053874;28;20221;-61
2022/09/26 07:14:21;;;;;;;5.60;3.40;;;12.80;99.90;;;-141.84;71.20;18919.69;5054175;28;20968;-61
2022/09/26 07:16:50;;;;;;;4.43;3.00;;;13.00;99.90;;;-141.84;70.06;18964.41;5054369;28;20221;-63
2022/09/26 07:19:19;;;;;;;3.80;3.00;;;13.10;99.90;;;-141.84;68.89;19035.53;5054171;28;20206;-62
2022/09/26 07:21:47;;;;;;;4.93;3.37;;;13.10;99.90;;;-141.84;68.51;19043.66;5053344;28;20209;-60
2022/09/26 07:24:16;;;;;;;4.20;2.90;;;13.20;99.90;;;-141.84;68.20;19088.34;5052679;28;20237;-62
2022/09/26 07:26:44;;;;;;;6.53;2.70;;;13.20;99.90;;;-141.84;68.24;19070.06;5053568;28;20236;-60
2022/09/26 07:29:12;;;;;;;6.87;3.77;;;13.20;99.90;;;-141.84;67.04;19210.28;5052822;28;20229;-60
2022/09/26 07:31:41;;;;;;;4.00;2.30;;;13.30;99.90;;;-141.84;66.63;19192.00;5052644;28;20704;-62
2022/09/26 07:34:10;;;;;;;3.47;3.00;;;13.30;99.90;;;-141.84;66.78;19230.59;5054008;28;20285;-62
2022/09/26 07:36:46;;;;;;;7.93;3.13;;;13.40;99.90;;;-141.84;66.87;19222.47;5054476;28;20235;-61
2022/09/26 07:39:14;;;;;;;4.57;2.70;;;13.50;99.90;;;-141.84;65.74;19346.44;5053577;28;20229;-63
2022/09/26 07:41:45;;;;;;;6.83;2.63;;;13.60;99.90;;;-141.84;65.34;19370.81;5053582;28;20229;-60
2022/09/26 07:44:13;;;;;;;3.33;2.70;;;13.60;99.90;;;-141.84;65.09;19374.88;5053624;28;20237;-62
2022/09/26 07:52:35;;;;;;;4.37;2.60;;;13.90;99.90;;;-141.84;64.35;19488.69;5053330;28;20236;-61
2022/09/26 07:55:03;;;;;;;4.23;2.97;;;14.00;99.90;;;-141.84;63.92;19553.72;5052898;28;20205;-62
2022/09/26 07:57:33;;;;;;;3.23;2.47;;;14.00;99.90;;;-141.84;64.17;19539.47;5053911;28;20208;-60
2022/09/26 08:00:02;;;;;;;4.35;2.47;;;14.10;99.90;;;-141.84;62.56;19683.78;5052987;28;20221;-61
2022/09/26 08:02:33;;;;;;;4.32;2.28;;;14.10;99.90;;;-141.84;61.90;19740.69;5053284;28;20604;-61
2022/09/26 08:05:03;;;;;;;3.20;2.25;;;14.20;99.90;;;-141.84;62.41;19687.84;5053261;28;20283;-62
2022/09/26 08:07:34;;;;;;;6.82;2.20;;;14.20;99.90;;;-141.84;61.76;19740.69;5053212;28;20228;-61
2022/09/26 08:10:04;;;;;;;4.30;2.20;;;14.20;99.90;;;-141.84;61.85;19769.13;5052804;28;20296;-60
2022/09/26 08:12:36;;;;;;;3.20;1.80;;;14.20;99.90;;;-141.84;61.97;19761.00;5053667;28;20205;-60
2022/09/26 08:15:05;;;;;;;2.88;2.03;;;14.30;99.90;;;-141.84;61.22;19836.19;5052879;28;20275;-62
2022/09/26 08:17:35;;;;;;;4.53;2.25;;;14.40;99.90;;;-141.84;60.97;19882.94;5053108;28;20278;-60
2022/09/26 08:20:04;;;;;;;5.65;2.20;;;14.50;99.90;;;-141.84;61.22;19862.63;5053029;28;20245;-60
2022/09/26 08:22:32;;;;;;;3.40;1.92;;;14.50;99.90;;;-141.84;60.77;19905.28;5052995;28;20235;-61
2022/09/26 08:25:00;;;;;;;3.72;2.17;;;14.60;99.90;;;-141.84;60.12;19972.38;5053188;28;20303;-60
2022/09/26 08:27:32;;;;;;;3.00;2.20;;;14.70;99.90;;;-141.84;60.36;19964.25;5053030;28;20225;-61
2022/09/26 08:30:03;;;;;;;3.33;1.98;;;14.70;99.90;;;-141.84;60.43;19976.44;5052629;28;20233;-61
2022/09/26 08:32:32;;;;;;;3.63;1.92;;;14.70;99.90;;;-141.84;59.79;19992.69;5052611;28;20224;-61
2022/09/26 08:35:01;;;;;;;7.05;2.08;;;14.80;99.90;;;-141.84;57.95;20126.84;5052654;28;20602;-62
2022/09/26 08:37:29;;;;;;;4.68;1.80;;;14.90;99.90;;;-141.84;57.45;20185.78;5052817;28;20247;-61
2022/09/26 08:39:59;;;;;;;4.20;1.70;;;14.90;99.90;;;-141.84;56.46;20226.44;5052731;28;20972;-60
2022/09/26 08:42:42;;;;;;;4.65;1.92;;;15.00;99.90;;;-141.84;55.10;20354.47;5052686;28;20300;-61
2022/09/26 08:48:39;;;;;;;2.92;1.30;;;15.10;99.90;;;-141.84;54.46;20350.41;5052243;28;20230;-61
2022/09/26 08:51:21;;;;;;;3.47;1.48;;;15.10;99.90;;;-141.84;54.44;20429.69;5052265;28;20241;-60
2022/09/26 08:54:04;;;;;;;5.70;1.60;;;15.10;99.90;;;-141.84;54.63;20415.47;5052022;28;20257;-61
2022/09/26 08:56:39;;;;;;;2.05;1.42;;;15.20;99.90;;;-141.84;53.95;20393.09;5051999;28;20225;-60
2022/09/26 08:59:22;;;;;;;2.40;1.55;;;15.20;99.90;;;-141.84;53.20;20484.56;5052169;28;20463;-60
2022/09/26 09:01:56;;;;;;;4.80;1.90;;;15.40;99.90;;;-141.84;52.67;20494.75;5051984;28;20233;-61
2022/09/26 09:04:39;;;;;;;2.13;1.42;;;15.50;99.90;;;-141.84;52.65;20523.19;5052217;28;20225;-61
2022/09/26 09:07:21;;;;;;;3.13;1.40;;;15.60;99.90;;;-141.84;51.95;20504.91;5051187;28;20610;-62
2022/09/26 09:09:53;;;;;;;3.80;1.38;;;15.70;99.90;;;-141.84;51.84;20559.78;5052143;28;20205;-60
2022/09/26 09:12:37;;;;;;;1.48;1.13;;;15.70;99.90;;;-141.84;51.28;20545.56;5051683;28;20240;-61
2022/09/26 09:15:32;;;;;;;3.03;1.40;;;15.80;99.90;;;-141.84;51.42;20513.03;5051944;28;20306;-61
2022/09/26 09:18:20;;;;;;;2.80;1.52;;;15.80;99.90;;;-141.84;50.74;20547.59;5051619;28;20224;-61
2022/09/26 09:21:01;;;;;;;1.98;1.20;;;15.80;99.90;;;-141.84;50.57;20582.16;5051543;28;20770;-61
2022/09/26 09:23:55;;;;;;;1.52;1.23;;;15.80;99.90;;;-141.84;51.11;20584.19;5051587;28;20225;-62
2022/09/26 09:26:34;;;;;;;5.35;1.73;;;15.80;99.90;;;-141.84;50.97;20606.53;5051463;28;20221;-61
2022/09/26 09:29:49;;;;;;;2.50;1.60;;;15.70;99.90;;;-141.84;51.04;20584.19;5051407;28;20221;-60
2022/09/26 09:32:23;;;;;;;2.17;1.50;;;15.80;99.90;;;-141.84;50.67;20578.09;5031787;28;20229;-62
2022/09/26 09:34:53;;;;;;;2.80;1.90;;;15.90;99.90;;;-141.84;50.47;20582.16;5031687;28;20236;-62
2022/09/26 09:37:25;;;;;;;3.72;1.80;;;15.80;99.90;;;-141.84;50.63;20628.91;5031504;28;20688;-61
2022/09/26 09:39:56;;;;;;;2.78;1.80;;;15.90;99.90;;;-141.84;49.70;20657.34;5031964;28;20190;-60
2022/09/26 09:42:36;;;;;;;3.45;2.40;;;16.00;99.90;;;-141.84;49.61;20643.13;5031274;28;20336;-61
2022/09/26 09:45:14;;;;;;;3.55;1.90;;;16.00;99.90;;;-141.84;48.75;20681.75;5031269;28;20224;-61
2022/09/26 09:47:42;;;;;;;1.75;1.60;;;16.10;99.90;;;-141.84;49.29;20675.66;5031402;28;20229;-60
2022/09/26 09:50:15;;;;;;;5.03;2.30;;;16.20;99.90;;;-141.84;48.38;20667.53;5031338;28;20225;-61
2022/09/26 09:53:00;;;;;;;4.10;2.00;;;16.10;99.90;;;-141.84;48.72;20667.53;5044055;28;20713;-60
2022/09/26 09:55:46;;;;;;;3.92;2.25;;;16.10;99.90;;;-141.84;49.68;20639.06;5051545;28;20224;-61
2022/09/26 09:58:38;;;;;;;3.22;2.15;;;16.00;99.90;;;-141.84;49.44;20673.63;5050974;28;20713;-62
2022/09/26 10:01:17;;;;;;;4.10;2.28;;;16.10;99.90;;;-141.84;49.70;20683.78;5051333;28;20201;-61
2022/09/26 10:04:00;;;;;;;4.22;2.20;;;16.20;99.90;;;-141.84;48.46;20742.75;5051887;28;20235;-62
2022/09/26 10:06:31;;;;;;;3.70;2.40;;;16.40;99.90;;;-141.84;47.60;20750.88;5051368;28;20209;-61
2022/09/26 10:09:20;;;;;;;3.75;2.03;;;16.40;99.90;;;-141.84;47.26;20846.41;5050578;28;20708;-61
2022/09/26 10:12:15;;;;;;;2.17;1.75;;;16.60;99.90;;;-141.84;48.03;20803.72;5050851;28;20596;-61
2022/09/26 10:14:51;;;;;;;3.22;1.90;;;16.70;99.90;;;-141.84;46.98;20793.56;5051035;28;20742;-62
2022/09/26 10:17:22;;;;;;;2.70;1.63;;;16.80;99.90;;;-141.84;46.81;20803.72;5052975;28;20228;-61
2022/09/26 10:19:51;;;;;;;3.05;1.75;;;16.80;99.90;;;-141.84;46.86;20840.31;5057698;28;20229;-61
2022/09/26 10:22:28;;;;;;;3.92;1.80;;;16.80;99.90;;;-141.84;46.30;20842.34;5057678;28;20212;-61
2022/09/26 10:25:04;;;;;;;2.13;1.42;;;16.80;99.90;;;-141.84;46.36;20834.22;5058271;28;20215;-61
2022/09/26 10:27:38;;;;;;;3.58;1.95;;;16.70;99.90;;;-141.84;47.36;20803.72;5057863;28;20236;-60
2022/09/26 10:30:25;;;;;;;3.83;1.88;;;16.50;99.90;;;-141.84;48.38;20756.97;5057555;28;20653;-60
2022/09/26 10:32:58;;;;;;;2.30;1.70;;;16.40;99.90;;;-141.84;47.14;20791.53;5057535;28;20235;-61
2022/09/26 10:35:40;;;;;;;4.75;2.08;;;16.40;99.90;;;-141.84;47.27;20842.34;5057621;28;20583;-61
2022/09/26 10:38:21;;;;;;;4.00;2.05;;;16.70;99.90;;;-141.84;46.65;20858.59;5057686;28;20229;-61
2022/09/26 10:40:53;;;;;;;3.13;1.50;;;17.00;99.90;;;-141.84;46.31;20954.16;5057520;28;20343;-61
2022/09/26 10:43:30;;;;;;;5.00;1.70;;;17.20;99.90;;;-141.84;45.38;20954.16;5057455;28;20232;-60